sensor_id;sensor_type;location;lat;lon;timestamp;pressure;altitude;pressure_sealevel;temperature;humidity
6387;BME280;3226;42.162;24.756;2022-10-16T00:01:19;100389.66;;;10.77;75.50
6387;BME280;3226;42.162;24.756;2022-10-16T00:03:48;100360.84;;;10.40;76.18
6387;BME280;3226;42.162;24.756;2022-10-16T00:06:18;100391.22;;;10.17;77.63
6387;BME280;3226;42.162;24.756;2022-10-16T00:08:47;100391.72;;;9.96;78.69
6387;BME280;3226;42.162;24.756;2022-10-16T00:11:17;100397.47;;;10.01;78.50
6387;BME280;3226;42.162;24.756;2022-10-16T00:13:47;100372.28;;;9.74;78.67
6387;BME280;3226;42.162;24.756;2022-10-16T00:16:17;100394.66;;;9.65;79.20
6387;BME280;3226;42.162;24.756;2022-10-16T00:18:46;100396.22;;;9.55;79.59
6387;BME280;3226;42.162;24.756;2022-10-16T00:21:16;100399.56;;;9.30;81.22
6387;BME280;3226;42.162;24.756;2022-10-16T00:23:45;100398.06;;;9.53;80.70
6387;BME280;3226;42.162;24.756;2022-10-16T00:26:15;100399.97;;;9.64;79.78
6387;BME280;3226;42.162;24.756;2022-10-16T00:28:45;100394.84;;;9.62;80.46
6387;BME280;3226;42.162;24.756;2022-10-16T00:31:15;100399.97;;;9.64;80.31
6387;BME280;3226;42.162;24.756;2022-10-16T00:33:44;100396.94;;;9.83;79.46
6387;BME280;3226;42.162;24.756;2022-10-16T00:36:14;100382.19;;;9.69;79.63
6387;BME280;3226;42.162;24.756;2022-10-16T00:38:42;100394.97;;;9.87;79.06
6387;BME280;3226;42.162;24.756;2022-10-16T00:41:12;100395.19;;;9.71;79.53
6387;BME280;3226;42.162;24.756;2022-10-16T00:43:43;100396.75;;;9.73;79.88
6387;BME280;3226;42.162;24.756;2022-10-16T00:46:17;100406.22;;;9.48;80.94
6387;BME280;3226;42.162;24.756;2022-10-16T00:48:50;100413.03;;;9.64;80.47
6387;BME280;3226;42.162;24.756;2022-10-16T00:51:21;100412.31;;;9.62;80.57
6387;BME280;3226;42.162;24.756;2022-10-16T00:53:51;100412.09;;;9.65;80.47
6387;BME280;3226;42.162;24.756;2022-10-16T00:56:20;100416.09;;;9.71;80.40
6387;BME280;3226;42.162;24.756;2022-10-16T00:58:48;100415.06;;;9.86;79.76
6387;BME280;3226;42.162;24.756;2022-10-16T01:01:16;100417.84;;;9.70;79.93
6387;BME280;3226;42.162;24.756;2022-10-16T01:03:44;100423.09;;;9.70;80.32
6387;BME280;3226;42.162;24.756;2022-10-16T01:06:22;100433.09;;;9.50;80.80
6387;BME280;3226;42.162;24.756;2022-10-16T01:09:02;100435.88;;;9.34;81.77
6387;BME280;3226;42.162;24.756;2022-10-16T01:11:41;100441.75;;;9.38;81.46
6387;BME280;3226;42.162;24.756;2022-10-16T01:14:15;100432.81;;;9.55;80.35
6387;BME280;3226;42.162;24.756;2022-10-16T01:16:50;100449.19;;;9.44;81.41
6387;BME280;3226;42.162;24.756;2022-10-16T01:19:29;100440.53;;;9.16;81.82
6387;BME280;3226;42.162;24.756;2022-10-16T01:22:03;100441.50;;;9.28;81.37
6387;BME280;3226;42.162;24.756;2022-10-16T01:24:37;100442.88;;;9.61;79.99
6387;BME280;3226;42.162;24.756;2022-10-16T01:27:10;100423.19;;;9.55;79.70
6387;BME280;3226;42.162;24.756;2022-10-16T01:29:45;100442.31;;;9.43;80.30
6387;BME280;3226;42.162;24.756;2022-10-16T01:32:23;100451.38;;;9.37;80.98
6387;BME280;3226;42.162;24.756;2022-10-16T01:34:58;100431.88;;;9.29;80.58
6387;BME280;3226;42.162;24.756;2022-10-16T01:37:33;100457.88;;;9.45;80.92
6387;BME280;3226;42.162;24.756;2022-10-16T01:40:06;100454.03;;;9.50;80.31
6387;BME280;3226;42.162;24.756;2022-10-16T01:42:40;100454.97;;;9.49;79.84
6387;BME280;3226;42.162;24.756;2022-10-16T01:45:11;100462.34;;;9.43;80.62
6387;BME280;3226;42.162;24.756;2022-10-16T01:47:41;100457.59;;;9.22;81.57
6387;BME280;3226;42.162;24.756;2022-10-16T01:50:12;100463.31;;;9.42;79.94
6387;BME280;3226;42.162;24.756;2022-10-16T01:52:45;100468.56;;;9.54;79.32
6387;BME280;3226;42.162;24.756;2022-10-16T01:55:18;100462.44;;;9.28;80.63
6387;BME280;3226;42.162;24.756;2022-10-16T01:57:49;100474.44;;;9.31;81.06
6387;BME280;3226;42.162;24.756;2022-10-16T02:00:20;100463.59;;;9.09;82.13
6387;BME280;3226;42.162;24.756;2022-10-16T02:02:51;100460.84;;;9.25;81.10
6387;BME280;3226;42.162;24.756;2022-10-16T02:05:25;100461.97;;;9.21;81.21
6387;BME280;3226;42.162;24.756;2022-10-16T02:07:55;100472.13;;;9.26;81.60
6387;BME280;3226;42.162;24.756;2022-10-16T02:10:27;100469.22;;;9.31;80.99
6387;BME280;3226;42.162;24.756;2022-10-16T02:13:05;100463.91;;;9.32;81.58
6387;BME280;3226;42.162;24.756;2022-10-16T02:15:34;100470.34;;;9.26;81.59
6387;BME280;3226;42.162;24.756;2022-10-16T02:18:02;100453.19;;;9.22;82.07
6387;BME280;3226;42.162;24.756;2022-10-16T02:20:37;100466.50;;;9.05;82.66
6387;BME280;3226;42.162;24.756;2022-10-16T02:23:10;100471.28;;;8.98;83.09
6387;BME280;3226;42.162;24.756;2022-10-16T02:25:44;100474.03;;;8.67;85.01
6387;BME280;3226;42.162;24.756;2022-10-16T02:28:17;100471.78;;;8.76;85.55
6387;BME280;3226;42.162;24.756;2022-10-16T02:30:50;100468.22;;;8.77;84.96
6387;BME280;3226;42.162;24.756;2022-10-16T02:33:21;100442.78;;;8.51;84.83
6387;BME280;3226;42.162;24.756;2022-10-16T02:35:51;100474.75;;;8.84;84.45
6387;BME280;3226;42.162;24.756;2022-10-16T02:38:21;100480.03;;;8.97;83.71
6387;BME280;3226;42.162;24.756;2022-10-16T02:40:49;100478.44;;;8.94;83.50
6387;BME280;3226;42.162;24.756;2022-10-16T02:43:19;100473.44;;;8.77;84.03
6387;BME280;3226;42.162;24.756;2022-10-16T02:45:47;100484.34;;;8.83;84.54
6387;BME280;3226;42.162;24.756;2022-10-16T02:48:15;100485.66;;;8.91;83.77
6387;BME280;3226;42.162;24.756;2022-10-16T02:50:43;100493.56;;;8.89;83.39
6387;BME280;3226;42.162;24.756;2022-10-16T02:53:11;100481.00;;;8.67;83.86
6387;BME280;3226;42.162;24.756;2022-10-16T02:55:39;100494.88;;;8.38;84.74
6387;BME280;3226;42.162;24.756;2022-10-16T02:58:09;100491.22;;;8.41;86.19
6387;BME280;3226;42.162;24.756;2022-10-16T03:00:38;100500.47;;;8.47;85.66
6387;BME280;3226;42.162;24.756;2022-10-16T03:03:06;100495.75;;;8.68;84.70
6387;BME280;3226;42.162;24.756;2022-10-16T03:05:34;100496.38;;;8.43;85.39
6387;BME280;3226;42.162;24.756;2022-10-16T03:08:03;100506.56;;;8.17;87.37
6387;BME280;3226;42.162;24.756;2022-10-16T03:10:31;100498.59;;;8.34;86.00
6387;BME280;3226;42.162;24.756;2022-10-16T03:12:59;100507.56;;;8.45;85.98
6387;BME280;3226;42.162;24.756;2022-10-16T03:15:27;100505.06;;;8.58;85.54
6387;BME280;3226;42.162;24.756;2022-10-16T03:17:58;100509.38;;;8.59;84.83
6387;BME280;3226;42.162;24.756;2022-10-16T03:20:26;100512.84;;;8.43;85.35
6387;BME280;3226;42.162;24.756;2022-10-16T03:22:54;100513.50;;;8.47;85.94
6387;BME280;3226;42.162;24.756;2022-10-16T03:25:23;100513.53;;;8.61;84.86
6387;BME280;3226;42.162;24.756;2022-10-16T03:27:52;100502.09;;;8.64;84.76
6387;BME280;3226;42.162;24.756;2022-10-16T03:30:20;100517.28;;;8.72;83.97
6387;BME280;3226;42.162;24.756;2022-10-16T03:32:48;100516.28;;;8.29;86.72
6387;BME280;3226;42.162;24.756;2022-10-16T03:35:23;100526.56;;;8.32;86.15
6387;BME280;3226;42.162;24.756;2022-10-16T03:37:51;100525.03;;;8.28;86.14
6387;BME280;3226;42.162;24.756;2022-10-16T03:40:19;100526.72;;;8.29;85.96
6387;BME280;3226;42.162;24.756;2022-10-16T03:42:48;100521.78;;;8.39;86.09
6387;BME280;3226;42.162;24.756;2022-10-16T03:45:16;100532.53;;;8.49;85.50
6387;BME280;3226;42.162;24.756;2022-10-16T03:47:44;100529.25;;;8.45;85.90
6387;BME280;3226;42.162;24.756;2022-10-16T03:50:12;100511.72;;;8.47;85.30
6387;BME280;3226;42.162;24.756;2022-10-16T03:52:42;100526.41;;;8.50;85.25
6387;BME280;3226;42.162;24.756;2022-10-16T03:55:10;100528.56;;;8.72;84.21
6387;BME280;3226;42.162;24.756;2022-10-16T03:57:38;100527.25;;;8.65;84.28
6387;BME280;3226;42.162;24.756;2022-10-16T04:00:07;100540.78;;;8.57;84.10
6387;BME280;3226;42.162;24.756;2022-10-16T04:02:35;100542.81;;;8.52;84.73
6387;BME280;3226;42.162;24.756;2022-10-16T04:05:03;100542.38;;;8.74;83.97
6387;BME280;3226;42.162;24.756;2022-10-16T04:07:32;100546.19;;;8.54;84.98
6387;BME280;3226;42.162;24.756;2022-10-16T04:10:02;100544.00;;;8.46;84.89
6387;BME280;3226;42.162;24.756;2022-10-16T04:12:30;100534.06;;;8.53;84.54
6387;BME280;3226;42.162;24.756;2022-10-16T04:14:58;100533.16;;;8.68;84.22
6387;BME280;3226;42.162;24.756;2022-10-16T04:17:26;100535.47;;;8.73;84.16
6387;BME280;3226;42.162;24.756;2022-10-16T04:19:55;100527.16;;;8.52;84.73
6387;BME280;3226;42.162;24.756;2022-10-16T04:22:23;100515.09;;;8.35;85.14
6387;BME280;3226;42.162;24.756;2022-10-16T04:24:56;100547.72;;;8.42;86.19
6387;BME280;3226;42.162;24.756;2022-10-16T04:27:25;100544.13;;;8.14;87.42
6387;BME280;3226;42.162;24.756;2022-10-16T04:29:55;100543.22;;;8.30;86.92
6387;BME280;3226;42.162;24.756;2022-10-16T04:32:23;100534.53;;;8.15;86.66
6387;BME280;3226;42.162;24.756;2022-10-16T04:34:52;100541.72;;;8.25;86.20
6387;BME280;3226;42.162;24.756;2022-10-16T04:37:23;100550.00;;;8.18;86.57
6387;BME280;3226;42.162;24.756;2022-10-16T04:39:52;100524.88;;;8.01;86.44
6387;BME280;3226;42.162;24.756;2022-10-16T04:42:21;100532.22;;;7.94;87.26
6387;BME280;3226;42.162;24.756;2022-10-16T04:44:50;100547.09;;;7.61;89.90
6387;BME280;3226;42.162;24.756;2022-10-16T04:47:18;100525.25;;;7.64;89.46
6387;BME280;3226;42.162;24.756;2022-10-16T04:49:47;100544.50;;;7.92;88.87
6387;BME280;3226;42.162;24.756;2022-10-16T04:52:16;100544.81;;;8.02;87.87
6387;BME280;3226;42.162;24.756;2022-10-16T04:54:45;100546.38;;;7.90;87.95
6387;BME280;3226;42.162;24.756;2022-10-16T04:57:13;100557.31;;;7.80;88.75
6387;BME280;3226;42.162;24.756;2022-10-16T04:59:41;100554.53;;;7.84;88.18
6387;BME280;3226;42.162;24.756;2022-10-16T05:02:11;100560.97;;;8.08;86.69
6387;BME280;3226;42.162;24.756;2022-10-16T05:04:39;100564.72;;;7.88;86.71
6387;BME280;3226;42.162;24.756;2022-10-16T05:07:07;100560.78;;;7.81;86.60
6387;BME280;3226;42.162;24.756;2022-10-16T05:09:36;100548.09;;;7.59;87.68
6387;BME280;3226;42.162;24.756;2022-10-16T05:12:04;100553.47;;;7.56;87.90
6387;BME280;3226;42.162;24.756;2022-10-16T05:14:32;100582.72;;;7.77;87.54
6387;BME280;3226;42.162;24.756;2022-10-16T05:17:00;100573.94;;;7.94;87.24
6387;BME280;3226;42.162;24.756;2022-10-16T05:19:30;100572.59;;;8.03;85.77
6387;BME280;3226;42.162;24.756;2022-10-16T05:21:58;100585.03;;;8.14;85.39
6387;BME280;3226;42.162;24.756;2022-10-16T05:24:26;100588.34;;;8.32;85.35
6387;BME280;3226;42.162;24.756;2022-10-16T05:26:55;100572.69;;;8.01;85.79
6387;BME280;3226;42.162;24.756;2022-10-16T05:29:23;100598.84;;;8.00;86.53
6387;BME280;3226;42.162;24.756;2022-10-16T05:31:52;100575.53;;;8.13;85.12
6387;BME280;3226;42.162;24.756;2022-10-16T05:34:21;100598.91;;;8.45;84.39
6387;BME280;3226;42.162;24.756;2022-10-16T05:36:50;100605.78;;;8.62;83.55
6387;BME280;3226;42.162;24.756;2022-10-16T05:39:19;100610.47;;;8.71;82.50
6387;BME280;3226;42.162;24.756;2022-10-16T05:41:49;100614.72;;;8.58;82.97
6387;BME280;3226;42.162;24.756;2022-10-16T05:44:19;100618.41;;;8.70;82.46
6387;BME280;3226;42.162;24.756;2022-10-16T05:46:47;100628.38;;;8.77;81.07
6387;BME280;3226;42.162;24.756;2022-10-16T05:49:15;100632.03;;;8.75;81.19
6387;BME280;3226;42.162;24.756;2022-10-16T05:51:43;100631.91;;;8.62;81.10
6387;BME280;3226;42.162;24.756;2022-10-16T05:54:13;100631.91;;;8.76;80.87
6387;BME280;3226;42.162;24.756;2022-10-16T05:56:41;100635.47;;;8.75;81.19
6387;BME280;3226;42.162;24.756;2022-10-16T05:59:09;100634.34;;;8.79;80.87
6387;BME280;3226;42.162;24.756;2022-10-16T06:01:37;100635.28;;;8.78;80.49
6387;BME280;3226;42.162;24.756;2022-10-16T06:04:05;100617.81;;;8.64;81.13
6387;BME280;3226;42.162;24.756;2022-10-16T06:06:34;100632.13;;;8.88;80.18
6387;BME280;3226;42.162;24.756;2022-10-16T06:09:03;100645.47;;;8.97;80.79
6387;BME280;3226;42.162;24.756;2022-10-16T06:11:33;100646.97;;;9.02;80.63
6387;BME280;3226;42.162;24.756;2022-10-16T06:14:02;100651.28;;;9.17;79.89
6387;BME280;3226;42.162;24.756;2022-10-16T06:16:34;100651.72;;;9.09;81.13
6387;BME280;3226;42.162;24.756;2022-10-16T06:19:03;100614.88;;;9.14;79.75
6387;BME280;3226;42.162;24.756;2022-10-16T06:21:33;100651.47;;;9.14;80.19
6387;BME280;3226;42.162;24.756;2022-10-16T06:24:01;100643.59;;;9.29;79.53
6387;BME280;3226;42.162;24.756;2022-10-16T06:26:30;100653.31;;;9.26;79.40
6387;BME280;3226;42.162;24.756;2022-10-16T06:29:00;100648.84;;;9.29;79.95
6387;BME280;3226;42.162;24.756;2022-10-16T06:31:29;100651.72;;;9.38;79.84
6387;BME280;3226;42.162;24.756;2022-10-16T06:33:58;100662.00;;;9.42;80.57
6387;BME280;3226;42.162;24.756;2022-10-16T06:36:26;100666.75;;;9.35;81.11
6387;BME280;3226;42.162;24.756;2022-10-16T06:38:54;100670.28;;;9.34;81.09
6387;BME280;3226;42.162;24.756;2022-10-16T06:41:23;100678.91;;;9.07;82.24
6387;BME280;3226;42.162;24.756;2022-10-16T06:43:51;100672.75;;;9.08;82.88
6387;BME280;3226;42.162;24.756;2022-10-16T06:46:23;100641.84;;;9.29;81.68
6387;BME280;3226;42.162;24.756;2022-10-16T06:48:52;100656.66;;;9.58;80.72
6387;BME280;3226;42.162;24.756;2022-10-16T06:51:22;100677.00;;;9.67;80.74
6387;BME280;3226;42.162;24.756;2022-10-16T06:53:51;100673.75;;;9.49;82.19
6387;BME280;3226;42.162;24.756;2022-10-16T06:56:29;100678.44;;;9.58;81.93
6387;BME280;3226;42.162;24.756;2022-10-16T06:58:59;100674.44;;;9.80;81.12
6387;BME280;3226;42.162;24.756;2022-10-16T07:01:28;100678.19;;;10.18;80.00
6387;BME280;3226;42.162;24.756;2022-10-16T07:03:57;100683.47;;;10.31;79.05
6387;BME280;3226;42.162;24.756;2022-10-16T07:06:26;100683.38;;;10.32;78.91
6387;BME280;3226;42.162;24.756;2022-10-16T07:08:54;100687.84;;;10.45;78.00
6387;BME280;3226;42.162;24.756;2022-10-16T07:11:23;100664.56;;;10.40;78.29
6387;BME280;3226;42.162;24.756;2022-10-16T07:13:52;100682.09;;;10.52;78.17
6387;BME280;3226;42.162;24.756;2022-10-16T07:16:23;100694.00;;;10.84;77.58
6387;BME280;3226;42.162;24.756;2022-10-16T07:18:53;100700.72;;;10.88;77.55
6387;BME280;3226;42.162;24.756;2022-10-16T07:21:27;100695.16;;;10.80;77.74
6387;BME280;3226;42.162;24.756;2022-10-16T07:23:57;100694.63;;;10.88;77.46
6387;BME280;3226;42.162;24.756;2022-10-16T07:26:27;100700.38;;;10.67;78.07
6387;BME280;3226;42.162;24.756;2022-10-16T07:28:56;100689.78;;;10.68;78.09
6387;BME280;3226;42.162;24.756;2022-10-16T07:31:25;100657.44;;;10.42;78.15
6387;BME280;3226;42.162;24.756;2022-10-16T07:33:54;100685.78;;;10.76;77.65
6387;BME280;3226;42.162;24.756;2022-10-16T07:36:23;100688.22;;;10.79;77.35
6387;BME280;3226;42.162;24.756;2022-10-16T07:38:52;100603.13;;;10.31;77.60
6387;BME280;3226;42.162;24.756;2022-10-16T07:41:26;100686.44;;;11.31;75.87
6387;BME280;3226;42.162;24.756;2022-10-16T07:43:54;100685.31;;;11.35;75.74
6387;BME280;3226;42.162;24.756;2022-10-16T07:46:24;100692.59;;;11.69;74.78
6387;BME280;3226;42.162;24.756;2022-10-16T07:48:53;100671.81;;;11.66;74.67
6387;BME280;3226;42.162;24.756;2022-10-16T07:51:23;100691.59;;;11.83;74.13
6387;BME280;3226;42.162;24.756;2022-10-16T07:53:52;100689.97;;;11.69;74.22
6387;BME280;3226;42.162;24.756;2022-10-16T07:56:21;100692.25;;;11.86;74.21
6387;BME280;3226;42.162;24.756;2022-10-16T07:58:50;100685.19;;;12.24;73.35
6387;BME280;3226;42.162;24.756;2022-10-16T08:01:18;100681.88;;;12.34;72.27
6387;BME280;3226;42.162;24.756;2022-10-16T08:03:47;100698.06;;;12.52;71.68
6387;BME280;3226;42.162;24.756;2022-10-16T08:06:19;100670.88;;;12.64;70.64
6387;BME280;3226;42.162;24.756;2022-10-16T08:08:54;100698.19;;;12.97;69.86
6387;BME280;3226;42.162;24.756;2022-10-16T08:11:22;100693.66;;;13.11;69.12
6387;BME280;3226;42.162;24.756;2022-10-16T08:13:50;100695.09;;;13.15;68.92
6387;BME280;3226;42.162;24.756;2022-10-16T08:16:18;100698.56;;;13.04;68.50
6387;BME280;3226;42.162;24.756;2022-10-16T08:18:47;100686.59;;;13.00;69.06
6387;BME280;3226;42.162;24.756;2022-10-16T08:21:18;100694.88;;;13.18;68.63
6387;BME280;3226;42.162;24.756;2022-10-16T08:23:47;100695.72;;;13.19;68.11
6387;BME280;3226;42.162;24.756;2022-10-16T08:26:24;100687.22;;;13.04;68.22
6387;BME280;3226;42.162;24.756;2022-10-16T08:28:52;100693.66;;;12.99;68.46
6387;BME280;3226;42.162;24.756;2022-10-16T08:31:20;100691.28;;;12.96;68.62
6387;BME280;3226;42.162;24.756;2022-10-16T08:33:48;100694.16;;;13.39;67.76
6387;BME280;3226;42.162;24.756;2022-10-16T08:36:18;100693.47;;;13.48;66.45
6387;BME280;3226;42.162;24.756;2022-10-16T08:38:47;100687.03;;;13.64;65.99
6387;BME280;3226;42.162;24.756;2022-10-16T08:41:23;100689.53;;;13.54;66.40
6387;BME280;3226;42.162;24.756;2022-10-16T08:46:51;100689.31;;;13.46;65.84
6387;BME280;3226;42.162;24.756;2022-10-16T08:49:24;100671.09;;;13.42;66.22
6387;BME280;3226;42.162;24.756;2022-10-16T08:51:55;100687.22;;;13.83;65.64
6387;BME280;3226;42.162;24.756;2022-10-16T08:54:28;100689.66;;;14.19;64.20
6387;BME280;3226;42.162;24.756;2022-10-16T08:57:04;100688.97;;;14.38;63.07
6387;BME280;3226;42.162;24.756;2022-10-16T08:59:35;100690.59;;;14.51;61.91
6387;BME280;3226;42.162;24.756;2022-10-16T09:02:23;100683.31;;;14.64;60.66
6387;BME280;3226;42.162;24.756;2022-10-16T09:05:01;100681.72;;;14.52;60.23
6387;BME280;3226;42.162;24.756;2022-10-16T09:07:36;100681.91;;;14.39;60.47
6387;BME280;3226;42.162;24.756;2022-10-16T09:10:21;100681.00;;;14.50;60.50
6387;BME280;3226;42.162;24.756;2022-10-16T09:12:56;100684.28;;;14.74;60.49
6387;BME280;3226;42.162;24.756;2022-10-16T09:15:32;100686.47;;;14.91;59.24
6387;BME280;3226;42.162;24.756;2022-10-16T09:18:10;100676.66;;;15.02;58.40
6387;BME280;3226;42.162;24.756;2022-10-16T09:20:47;100686.25;;;15.35;58.59
6387;BME280;3226;42.162;24.756;2022-10-16T09:23:19;100686.75;;;15.59;57.94
6387;BME280;3226;42.162;24.756;2022-10-16T09:25:50;100685.50;;;15.64;55.41
6387;BME280;3226;42.162;24.756;2022-10-16T09:28:18;100681.47;;;15.59;54.88
6387;BME280;3226;42.162;24.756;2022-10-16T09:30:47;100660.66;;;15.66;53.87
6387;BME280;3226;42.162;24.756;2022-10-16T09:33:19;100682.56;;;16.08;53.03
6387;BME280;3226;42.162;24.756;2022-10-16T09:35:50;100678.84;;;16.40;52.91
6387;BME280;3226;42.162;24.756;2022-10-16T09:38:26;100678.41;;;16.25;52.82
6387;BME280;3226;42.162;24.756;2022-10-16T09:40:56;100669.94;;;16.11;51.93
6387;BME280;3226;42.162;24.756;2022-10-16T09:43:34;100674.91;;;15.44;52.78
6387;BME280;3226;42.162;24.756;2022-10-16T09:46:04;100675.78;;;15.54;53.41
6387;BME280;3226;42.162;24.756;2022-10-16T09:48:36;100653.19;;;15.81;53.12
6387;BME280;3226;42.162;24.756;2022-10-16T09:51:13;100663.09;;;15.99;51.32
6387;BME280;3226;42.162;24.756;2022-10-16T09:53:46;100659.50;;;16.19;50.34
6387;BME280;3226;42.162;24.756;2022-10-16T09:56:22;100657.28;;;16.15;50.47
6387;BME280;3226;42.162;24.756;2022-10-16T09:58:51;100660.63;;;16.37;50.03
6387;BME280;3226;42.162;24.756;2022-10-16T10:01:21;100634.88;;;16.48;49.86
6387;BME280;3226;42.162;24.756;2022-10-16T10:03:51;100652.47;;;16.77;50.37
6387;BME280;3226;42.162;24.756;2022-10-16T10:06:29;100649.81;;;16.77;49.16
6387;BME280;3226;42.162;24.756;2022-10-16T10:09:05;100645.56;;;16.67;47.89
6387;BME280;3226;42.162;24.756;2022-10-16T10:11:39;100629.84;;;16.55;46.63
6387;BME280;3226;42.162;24.756;2022-10-16T10:14:15;100632.50;;;16.45;45.63
6387;BME280;3226;42.162;24.756;2022-10-16T10:16:45;100634.69;;;16.70;45.76
6387;BME280;3226;42.162;24.756;2022-10-16T10:19:16;100637.31;;;16.80;44.91
6387;BME280;3226;42.162;24.756;2022-10-16T10:21:45;100604.94;;;16.48;45.33
6387;BME280;3226;42.162;24.756;2022-10-16T10:24:16;100630.69;;;16.56;45.88
6387;BME280;3226;42.162;24.756;2022-10-16T10:26:53;100630.00;;;16.54;44.55
6387;BME280;3226;42.162;24.756;2022-10-16T10:29:31;100631.97;;;16.99;44.89
6387;BME280;3226;42.162;24.756;2022-10-16T10:32:11;100617.78;;;17.00;43.51
6387;BME280;3226;42.162;24.756;2022-10-16T10:35:07;100627.91;;;17.15;44.52
6387;BME280;3226;42.162;24.756;2022-10-16T10:37:51;100621.16;;;16.83;44.33
6387;BME280;3226;42.162;24.756;2022-10-16T10:40:35;100612.78;;;17.25;44.06
6387;BME280;3226;42.162;24.756;2022-10-16T10:43:12;100618.38;;;17.22;44.33
6387;BME280;3226;42.162;24.756;2022-10-16T10:45:46;100611.00;;;17.44;44.60
6387;BME280;3226;42.162;24.756;2022-10-16T10:48:26;100600.25;;;17.27;44.40
6387;BME280;3226;42.162;24.756;2022-10-16T10:50:58;100596.06;;;17.53;43.69
6387;BME280;3226;42.162;24.756;2022-10-16T10:53:38;100606.41;;;17.46;43.01
6387;BME280;3226;42.162;24.756;2022-10-16T10:56:23;100608.47;;;17.24;44.38
6387;BME280;3226;42.162;24.756;2022-10-16T10:59:02;100603.81;;;17.36;43.32
6387;BME280;3226;42.162;24.756;2022-10-16T11:01:44;100590.59;;;17.08;43.90
6387;BME280;3226;42.162;24.756;2022-10-16T11:04:36;100596.03;;;17.34;43.93
6387;BME280;3226;42.162;24.756;2022-10-16T11:07:12;100593.44;;;17.43;44.18
6387;BME280;3226;42.162;24.756;2022-10-16T11:09:46;100595.25;;;17.70;43.54
6387;BME280;3226;42.162;24.756;2022-10-16T11:12:19;100601.59;;;17.77;43.33
6387;BME280;3226;42.162;24.756;2022-10-16T11:14:50;100595.31;;;17.97;42.83
6387;BME280;3226;42.162;24.756;2022-10-16T11:17:26;100591.09;;;18.04;42.57
6387;BME280;3226;42.162;24.756;2022-10-16T11:20:00;100593.38;;;18.17;41.33
6387;BME280;3226;42.162;24.756;2022-10-16T11:22:32;100585.00;;;18.30;41.71
6387;BME280;3226;42.162;24.756;2022-10-16T11:25:13;100569.66;;;18.15;41.34
6387;BME280;3226;42.162;24.756;2022-10-16T11:27:50;100584.03;;;18.31;40.51
6387;BME280;3226;42.162;24.756;2022-10-16T11:30:22;100574.81;;;18.17;41.49
6387;BME280;3226;42.162;24.756;2022-10-16T11:32:57;100572.06;;;18.27;41.43
6387;BME280;3226;42.162;24.756;2022-10-16T11:35:37;100560.22;;;18.39;41.53
6387;BME280;3226;42.162;24.756;2022-10-16T11:38:13;100565.31;;;18.59;41.31
6387;BME280;3226;42.162;24.756;2022-10-16T11:40:43;100560.16;;;18.57;40.37
6387;BME280;3226;42.162;24.756;2022-10-16T11:43:19;100572.47;;;18.67;40.03
6387;BME280;3226;42.162;24.756;2022-10-16T11:45:52;100572.13;;;18.61;40.80
6387;BME280;3226;42.162;24.756;2022-10-16T11:48:26;100573.44;;;18.66;40.59
6387;BME280;3226;42.162;24.756;2022-10-16T11:50:58;100571.97;;;18.63;39.85
6387;BME280;3226;42.162;24.756;2022-10-16T11:53:39;100574.94;;;18.60;39.97
6387;BME280;3226;42.162;24.756;2022-10-16T11:56:13;100575.22;;;18.83;39.63
6387;BME280;3226;42.162;24.756;2022-10-16T11:58:52;100574.06;;;18.86;39.22
6387;BME280;3226;42.162;24.756;2022-10-16T12:01:28;100579.19;;;18.79;39.50
6387;BME280;3226;42.162;24.756;2022-10-16T12:04:18;100564.19;;;18.70;39.35
6387;BME280;3226;42.162;24.756;2022-10-16T12:06:51;100559.91;;;18.42;39.56
6387;BME280;3226;42.162;24.756;2022-10-16T12:09:25;100576.78;;;18.68;39.87
6387;BME280;3226;42.162;24.756;2022-10-16T12:11:53;100577.44;;;18.70;39.96
6387;BME280;3226;42.162;24.756;2022-10-16T12:14:35;100576.59;;;18.61;39.89
6387;BME280;3226;42.162;24.756;2022-10-16T12:17:26;100576.53;;;18.79;40.02
6387;BME280;3226;42.162;24.756;2022-10-16T12:19:59;100590.09;;;19.02;39.29
6387;BME280;3226;42.162;24.756;2022-10-16T12:22:29;100571.53;;;19.11;38.58
6387;BME280;3226;42.162;24.756;2022-10-16T12:24:59;100577.72;;;19.19;38.81
6387;BME280;3226;42.162;24.756;2022-10-16T12:27:29;100583.13;;;19.01;38.75
6387;BME280;3226;42.162;24.756;2022-10-16T12:30:01;100567.00;;;18.15;40.03
6387;BME280;3226;42.162;24.756;2022-10-16T12:32:32;100574.81;;;18.70;39.73
6387;BME280;3226;42.162;24.756;2022-10-16T12:35:19;100574.50;;;18.99;38.76
6387;BME280;3226;42.162;24.756;2022-10-16T12:37:48;100574.38;;;18.83;39.71
6387;BME280;3226;42.162;24.756;2022-10-16T12:40:26;100574.31;;;18.66;39.21
6387;BME280;3226;42.162;24.756;2022-10-16T12:42:55;100570.47;;;18.95;39.22
6387;BME280;3226;42.162;24.756;2022-10-16T12:45:28;100574.53;;;19.16;38.68
6387;BME280;3226;42.162;24.756;2022-10-16T12:47:59;100571.63;;;19.27;39.08
6387;BME280;3226;42.162;24.756;2022-10-16T12:50:33;100584.63;;;19.04;38.35
6387;BME280;3226;42.162;24.756;2022-10-16T12:53:04;100585.00;;;18.83;39.24
6387;BME280;3226;42.162;24.756;2022-10-16T12:55:52;100587.25;;;19.04;39.19
6387;BME280;3226;42.162;24.756;2022-10-16T12:58:41;100582.81;;;19.04;39.24
6387;BME280;3226;42.162;24.756;2022-10-16T13:01:22;100585.38;;;19.23;38.67
6387;BME280;3226;42.162;24.756;2022-10-16T13:04:09;100572.75;;;19.25;39.26
6387;BME280;3226;42.162;24.756;2022-10-16T13:06:44;100585.16;;;19.16;38.46
6387;BME280;3226;42.162;24.756;2022-10-16T13:09:31;100585.38;;;19.23;38.75
6387;BME280;3226;42.162;24.756;2022-10-16T13:12:18;100581.69;;;19.15;38.77
6387;BME280;3226;42.162;24.756;2022-10-16T13:15:07;100580.59;;;19.34;38.38
6387;BME280;3226;42.162;24.756;2022-10-16T13:17:46;100583.56;;;19.31;38.47
6387;BME280;3226;42.162;24.756;2022-10-16T13:20:21;100582.47;;;19.07;38.58
6387;BME280;3226;42.162;24.756;2022-10-16T13:22:59;100585.38;;;19.23;38.68
6387;BME280;3226;42.162;24.756;2022-10-16T13:25:40;100587.94;;;19.06;39.27
6387;BME280;3226;42.162;24.756;2022-10-16T13:28:12;100587.72;;;19.34;38.54
6387;BME280;3226;42.162;24.756;2022-10-16T13:30:42;100590.03;;;19.29;39.33
6387;BME280;3226;42.162;24.756;2022-10-16T13:33:17;100582.41;;;19.42;38.36